Time;durP1;ratioP1;P1;durP2;ratioP2;P2;SDS_P1;SDS_P2;PMS_P1;PMS_P2;Temp;Humidity;BMP_temperature;BMP_pressure;BME280_temperature;BME280_humidity;BME280_pressure;Samples;Min_cycle;Max_cycle;Signal;HPM_P1;HPM_P2
2022/09/20 01:16:07;;;;;;;9.77;0.90;;;9.60;99.90;;;;;;5079673;28;20062;-84
2022/09/20 01:18:36;;;;;;;3.72;0.52;;;9.80;99.90;;;;;;5082778;28;20064;-84
2022/09/20 01:21:06;;;;;;;7.65;1.10;;;9.60;99.90;;;;;;5052854;28;20818;-84
2022/09/20 01:23:38;;;;;;;9.05;1.38;;;9.70;99.90;;;;;;5060969;28;20409;-84
2022/09/20 01:26:19;;;;;;;6.82;0.95;;;9.60;99.90;;;;;;5080478;28;20521;-84
2022/09/20 01:28:50;;;;;;;5.90;0.70;;;9.60;99.90;;;;;;5063352;28;20040;-84
2022/09/20 01:31:25;;;;;;;5.18;0.50;;;9.70;99.90;;;;;;5062240;28;20036;-84
2022/09/20 01:33:58;;;;;;;9.65;1.63;;;9.60;99.90;;;;;;5079837;28;20039;-84
2022/09/20 01:36:42;;;;;;;4.47;0.47;;;9.60;99.90;;;;;;5085210;28;20040;-84
2022/09/20 01:39:15;;;;;;;7.65;0.90;;;9.60;99.90;;;;;;5079577;28;20078;-84
2022/09/20 01:41:48;;;;;;;8.20;0.77;;;9.60;99.90;;;;;;5081472;28;20036;-84
2022/09/20 01:44:39;;;;;;;5.93;1.38;;;9.60;99.90;;;;;;5082173;28;20040;-83
2022/09/20 01:47:35;;;;;;;10.15;0.70;;;9.60;99.90;;;;;;5079881;28;20040;-83
2022/09/20 01:50:21;;;;;;;;;;;9.60;99.90;;;;;;5078841;28;20545;-84
2022/09/20 01:53:05;;;;;;;6.38;0.60;;;9.60;99.90;;;;;;5064131;28;19916;-84
2022/09/20 01:55:41;;;;;;;7.28;0.82;;;9.50;99.90;;;;;;5083247;28;20050;-83
2022/09/20 01:58:28;;;;;;;6.13;0.60;;;9.60;99.90;;;;;;5098474;28;20085;-84
2022/09/20 02:01:29;;;;;;;8.90;0.82;;;9.60;99.90;;;;;;5082102;28;20039;-84
2022/09/20 02:04:32;;;;;;;7.60;1.08;;;9.60;99.90;;;;;;5083345;28;20039;-84
2022/09/20 02:07:17;;;;;;;8.75;1.05;;;9.50;99.90;;;;;;5086060;28;20410;-84
2022/09/20 02:09:55;;;;;;;6.57;0.60;;;9.60;99.90;;;;;;5078566;28;20471;-84
2022/09/20 02:12:53;;;;;;;8.48;1.83;;;9.60;99.90;;;;;;5079994;28;20060;-84
2022/09/20 02:15:56;;;;;;;4.57;0.45;;;9.40;99.90;;;;;;5086726;28;20039;-84
2022/09/20 02:18:42;;;;;;;8.50;0.90;;;9.80;99.90;;;;;;5068803;28;20135;-84
2022/09/20 02:21:43;;;;;;;6.53;0.68;;;9.50;99.90;;;;;;5082797;28;20093;-84
2022/09/20 02:24:27;;;;;;;8.98;1.45;;;9.60;99.90;;;;;;5066081;28;20086;-84
2022/09/20 02:27:12;;;;;;;13.10;1.42;;;9.50;99.90;;;;;;5080267;28;20048;-84
2022/09/20 02:29:41;;;;;;;5.53;0.75;;;9.50;99.90;;;;;;5065269;28;20044;-84
2022/09/20 02:32:44;;;;;;;10.98;0.90;;;9.50;99.90;;;;;;5065724;28;20086;-84
2022/09/20 02:35:18;;;;;;;10.13;1.30;;;9.50;99.90;;;;;;5083515;28;20490;-84
2022/09/20 02:38:00;;;;;;;9.13;0.90;;;9.50;99.90;;;;;;5082642;28;20151;-84
2022/09/20 02:40:51;;;;;;;8.80;0.90;;;9.50;99.90;;;;;;5068621;28;20050;-84
2022/09/20 02:43:39;;;;;;;7.25;0.90;;;9.50;99.90;;;;;;5085278;28;20469;-84
2022/09/20 02:46:49;;;;;;;8.65;0.60;;;9.40;99.90;;;;;;5083030;28;20052;-84
2022/09/20 02:49:33;;;;;;;6.53;0.60;;;9.50;99.90;;;;;;5072499;28;20059;-84
2022/09/20 02:52:20;;;;;;;4.35;0.40;;;9.40;99.90;;;;;;5067813;28;20123;-84
2022/09/20 02:55:11;;;;;;;5.78;0.95;;;9.40;99.90;;;;;;5065018;28;21688;-84
2022/09/20 02:58:34;;;;;;;9.35;1.50;;;9.50;99.90;;;;;;5079650;28;20148;-84
2022/09/20 03:01:32;;;;;;;5.43;1.27;;;9.50;99.90;;;;;;5025442;28;20071;-85
2022/09/20 03:04:59;;;;;;;9.73;1.00;;;9.50;99.90;;;;;;5079081;28;20032;-85
2022/09/20 03:07:45;;;;;;;7.05;1.13;;;9.50;99.90;;;;;;5004809;28;20049;-84
2022/09/20 03:10:24;;;;;;;9.85;0.95;;;9.60;99.90;;;;;;4994049;28;20045;-84
2022/09/20 03:13:09;;;;;;;10.02;0.95;;;9.60;99.90;;;;;;5042701;28;20895;-84
2022/09/20 03:16:00;;;;;;;7.88;0.80;;;9.60;99.90;;;;;;5086295;28;20040;-84
2022/09/20 03:18:46;;;;;;;8.10;1.02;;;9.60;99.90;;;;;;5077660;28;20048;-84
2022/09/20 03:21:21;;;;;;;7.27;0.70;;;9.70;99.90;;;;;;5080324;28;20123;-84
2022/09/20 03:24:16;;;;;;;4.15;0.68;;;9.70;99.90;;;;;;5084052;28;20118;-84
2022/09/20 03:27:07;;;;;;;6.78;0.73;;;9.80;99.90;;;;;;5080413;28;20051;-84
2022/09/20 03:29:32;;;;;;;6.40;0.98;;;9.80;99.90;;;;;;5083245;28;20071;-84
2022/09/20 03:32:12;;;;;;;5.82;0.57;;;10.70;99.90;;;;;;5077887;28;20071;-84
2022/09/20 03:35:12;;;;;;;5.53;0.60;;;9.80;99.90;;;;;;5076889;28;20101;-84
2022/09/20 03:37:52;;;;;;;7.65;0.70;;;9.80;99.90;;;;;;5077804;28;20117;-84
2022/09/20 03:40:47;;;;;;;6.65;0.50;;;10.20;99.90;;;;;;5080688;28;20040;-84
2022/09/20 03:43:21;;;;;;;6.47;1.02;;;10.00;99.90;;;;;;5083988;28;20111;-84
2022/09/20 03:46:00;;;;;;;5.97;0.70;;;10.00;99.90;;;;;;5081047;28;20115;-84
2022/09/20 03:48:25;;;;;;;5.03;0.43;;;10.10;99.90;;;;;;5080861;28;20032;-84
2022/09/20 03:51:09;;;;;;;7.88;0.88;;;10.10;99.90;;;;;;5077637;28;20037;-84
2022/09/20 03:54:03;;;;;;;7.57;0.90;;;10.20;99.90;;;;;;5063198;28;20052;-84
2022/09/20 03:57:11;;;;;;;7.18;1.15;;;10.20;99.90;;;;;;5083963;28;20055;-84
2022/09/20 03:59:54;;;;;;;4.45;0.57;;;10.30;99.90;;;;;;5078376;28;20044;-84
2022/09/20 04:03:11;;;;;;;7.43;1.10;;;10.30;99.90;;;;;;5074226;28;20051;-84
2022/09/20 04:05:49;;;;;;;5.13;1.23;;;10.40;99.90;;;;;;5081589;28;20044;-84
2022/09/20 04:08:51;;;;;;;5.50;0.77;;;10.40;99.90;;;;;;5081404;28;20055;-84
2022/09/20 04:11:39;;;;;;;6.20;0.60;;;10.40;99.90;;;;;;5080767;28;20510;-84
2022/09/20 04:14:36;;;;;;;8.55;0.73;;;10.50;99.90;;;;;;5077376;28;20040;-86
2022/09/20 04:17:19;;;;;;;5.32;0.73;;;10.50;99.90;;;;;;5077022;28;20886;-87
2022/09/20 04:20:01;;;;;;;7.00;0.90;;;10.50;99.90;;;;;;5084894;28;20036;-87
2022/09/20 04:22:50;;;;;;;8.07;1.08;;;10.50;99.90;;;;;;5065893;28;20036;-87
2022/09/20 04:25:35;;;;;;;5.25;0.63;;;10.50;99.90;;;;;;5079010;28;20043;-84
2022/09/20 04:28:13;;;;;;;4.93;0.60;;;10.60;99.90;;;;;;5081902;28;20507;-83
2022/09/20 04:30:42;;;;;;;7.78;0.77;;;10.60;99.90;;;;;;5080969;28;20036;-83
2022/09/20 04:33:28;;;;;;;5.95;0.43;;;11.10;99.90;;;;;;5078170;28;20498;-84
2022/09/20 04:36:28;;;;;;;5.32;0.47;;;10.60;99.90;;;;;;5082877;28;20126;-87
2022/09/20 04:39:00;;;;;;;3.13;0.47;;;10.60;99.90;;;;;;5068832;28;20390;-85
2022/09/20 04:42:00;;;;;;;4.68;0.60;;;11.10;99.90;;;;;;5087307;28;20043;-84
2022/09/20 04:44:54;;;;;;;6.28;0.55;;;10.70;99.90;;;;;;5082283;28;20047;-87
2022/09/20 04:47:54;;;;;;;5.85;0.73;;;10.70;99.90;;;;;;5080755;28;20044;-85
2022/09/20 04:50:40;;;;;;;5.75;0.70;;;10.70;99.90;;;;;;5082749;28;20032;-86
2022/09/20 04:53:58;;;;;;;5.07;0.50;;;10.60;99.90;;;;;;5084179;28;20124;-86
2022/09/20 04:56:58;;;;;;;3.60;0.50;;;10.60;99.90;;;;;;5079475;28;20045;-85
2022/09/20 04:59:45;;;;;;;5.50;1.05;;;10.60;99.90;;;;;;5079837;28;20037;-85
2022/09/20 05:10:13;;;;;;;3.17;0.82;;;10.60;99.90;;;;;;5078950;28;20124;-86
2022/09/20 05:13:09;;;;;;;2.53;0.40;;;10.60;99.90;;;;;;5080813;28;20036;-87
2022/09/20 05:16:01;;;;;;;4.60;0.73;;;10.60;99.90;;;;;;5061197;28;20036;-85
2022/09/20 05:18:40;;;;;;;5.30;0.43;;;10.60;99.90;;;;;;5078033;28;20055;-84
2022/09/20 05:21:18;;;;;;;15.10;0.73;;;10.60;99.90;;;;;;5079359;28;20032;-83
2022/09/20 05:24:01;;;;;;;4.57;0.43;;;10.60;99.90;;;;;;5073726;28;20379;-84
2022/09/20 05:26:56;;;;;;;1.98;0.47;;;10.60;99.90;;;;;;5062988;28;20048;-83
2022/09/20 05:29:56;;;;;;;8.65;0.68;;;10.60;99.90;;;;;;5082994;28;20036;-83
2022/09/20 05:32:44;;;;;;;3.67;0.30;;;10.70;99.90;;;;;;5074651;28;20044;-84
2022/09/20 05:35:21;;;;;;;7.93;1.50;;;10.70;99.90;;;;;;5090542;28;20037;-83
2022/09/20 05:41:47;;;;;;;5.95;0.40;;;10.80;99.90;;;;;;5079588;28;20182;-87
2022/09/20 05:45:16;;;;;;;5.00;0.32;;;10.80;99.90;;;;;;5060612;28;20048;-86
2022/09/20 05:48:22;;;;;;;5.30;0.40;;;10.90;99.90;;;;;;5060436;28;20586;-87
2022/09/20 05:51:10;;;;;;;4.45;0.60;;;10.90;99.90;;;;;;5030593;28;20054;-86
2022/09/20 05:54:02;;;;;;;6.35;0.80;;;11.00;99.90;;;;;;5078993;28;20040;-84
2022/09/20 05:57:14;;;;;;;7.72;1.30;;;11.00;99.90;;;;;;5081922;28;20111;-83
2022/09/20 06:26:32;;;;;;;6.25;0.77;;;11.30;99.90;;;;;;4929494;29;20610;-87
2022/09/20 06:51:58;;;;;;;7.22;1.02;;;11.30;99.90;;;;;;4985109;28;20057;-87
2022/09/20 06:55:58;;;;;;;2.08;0.38;;;11.40;99.90;;;;;;5028402;28;20488;-87
2022/09/20 06:59:26;;;;;;;4.05;0.50;;;11.50;99.90;;;;;;5029379;28;20538;-86
2022/09/20 07:02:09;;;;;;;6.22;1.48;;;11.70;99.90;;;;;;5041348;28;20491;-86
2022/09/20 07:05:23;;;;;;;6.45;1.00;;;12.00;99.90;;;;;;5012894;28;20049;-86
2022/09/20 07:11:33;;;;;;;5.88;0.80;;;12.30;99.90;;;;;;5084497;28;20097;-86
2022/09/20 07:14:00;;;;;;;7.60;1.20;;;12.50;99.90;;;;;;5054603;28;20036;-86
2022/09/20 07:16:26;;;;;;;4.63;0.50;;;12.60;99.90;;;;;;5068902;28;20032;-86
2022/09/20 07:19:11;;;;;;;7.85;0.75;;;12.70;99.90;;;;;;5080803;28;20447;-86
2022/09/20 07:21:36;;;;;;;8.30;1.23;;;12.90;99.90;;;;;;5062724;28;20040;-86
2022/09/20 07:24:03;;;;;;;3.65;0.47;;;13.20;99.90;;;;;;5065026;28;20410;-86
2022/09/20 07:26:29;;;;;;;4.57;0.85;;;13.30;99.90;;;;;;5083386;28;20508;-86
2022/09/20 07:29:39;;;;;;;4.93;0.82;;;13.40;99.90;;;;;;5064076;28;20036;-86
2022/09/20 07:32:42;;;;;;;5.03;0.60;;;13.40;99.90;;;;;;5001983;28;20129;-86
2022/09/20 07:39:12;;;;;;;5.18;0.50;;;13.40;99.90;;;;;;5003195;28;20403;-87
2022/09/20 07:41:56;;;;;;;5.25;0.90;;;13.50;99.90;;;;;;4998379;28;20474;-87
2022/09/20 07:44:26;;;;;;;5.38;1.02;;;14.00;99.90;;;;;;5050051;28;20056;-87
2022/09/20 07:46:54;;;;;;;4.22;0.80;;;13.60;99.90;;;;;;5065666;28;20042;-87
2022/09/20 07:49:21;;;;;;;4.50;0.93;;;13.70;99.90;;;;;;5073145;28;20044;-87
2022/09/20 07:51:48;;;;;;;4.10;0.50;;;13.80;99.90;;;;;;5071911;28;20547;-87
2022/09/20 07:54:14;;;;;;;3.88;0.50;;;14.00;99.90;;;;;;5069873;28;20045;-86
2022/09/20 07:56:40;;;;;;;3.03;0.60;;;13.90;99.90;;;;;;5083978;28;20032;-86
2022/09/20 07:59:06;;;;;;;10.43;1.17;;;13.90;99.90;;;;;;5067190;28;20127;-86
2022/09/20 08:01:32;;;;;;;4.30;0.60;;;14.10;99.90;;;;;;5083635;28;20103;-86
2022/09/20 08:04:02;;;;;;;5.50;0.70;;;14.00;99.90;;;;;;5065641;28;20813;-86
2022/09/20 08:06:31;;;;;;;5.97;0.75;;;14.20;99.90;;;;;;5085783;28;20800;-86
2022/09/20 08:08:57;;;;;;;5.93;0.60;;;14.50;99.90;;;;;;5088386;28;20039;-87
2022/09/20 08:11:24;;;;;;;4.82;0.60;;;14.20;99.90;;;;;;5080943;28;20044;-86
2022/09/20 08:13:51;;;;;;;5.60;1.02;;;14.50;99.90;;;;;;5068172;28;20115;-87
2022/09/20 08:16:18;;;;;;;6.45;0.73;;;14.50;99.90;;;;;;5081769;28;20048;-86
2022/09/20 08:18:49;;;;;;;6.30;0.75;;;14.50;99.90;;;;;;5082779;28;20448;-87
2022/09/20 08:21:15;;;;;;;8.23;0.75;;;14.60;99.90;;;;;;5081103;28;20050;-86
2022/09/20 08:23:43;;;;;;;4.00;0.47;;;14.70;99.90;;;;;;5081668;28;20036;-86
2022/09/20 08:26:14;;;;;;;8.02;0.70;;;14.50;99.90;;;;;;5081381;28;20162;-86
2022/09/20 08:28:41;;;;;;;5.38;0.75;;;14.60;99.90;;;;;;5083613;28;20047;-86
2022/09/20 08:31:12;;;;;;;4.00;0.50;;;14.80;99.90;;;;;;5080532;28;20165;-85
2022/09/20 08:33:38;;;;;;;4.15;0.50;;;15.10;99.90;;;;;;5063527;28;20114;-87
2022/09/20 08:36:05;;;;;;;5.57;1.02;;;15.40;99.90;;;;;;5080395;28;20040;-86
2022/09/20 08:38:32;;;;;;;3.85;0.40;;;15.70;99.90;;;;;;5083343;28;20473;-86
2022/09/20 08:41:14;;;;;;;2.25;0.50;;;16.00;99.90;;;;;;5083650;28;20043;-86
2022/09/20 08:44:16;;;;;;;2.95;0.65;;;16.20;99.90;;;;;;5081580;28;20080;-87
2022/09/20 08:51:11;;;;;;;5.65;0.80;;;16.60;99.90;;;;;;5018725;28;20083;-87
2022/09/20 08:54:09;;;;;;;7.47;0.90;;;16.80;99.90;;;;;;5019328;28;20077;-87
2022/09/20 08:57:20;;;;;;;6.25;0.65;;;17.10;99.90;;;;;;5005766;28;20045;-87
2022/09/20 09:00:46;;;;;;;3.28;0.47;;;17.30;99.90;;;;;;4988869;28;20610;-86
2022/09/20 09:03:55;;;;;;;4.43;0.70;;;17.60;99.90;;;;;;4987923;28;20133;-87
2022/09/20 09:15:28;;;;;;;6.53;0.60;;;18.20;99.90;;;;;;4971254;28;20137;-87
2022/09/20 09:19:35;;;;;;;4.13;0.47;;;18.40;99.90;;;;;;4917794;28;20129;-86
2022/09/20 09:23:25;;;;;;;3.05;0.40;;;18.40;99.90;;;;;;4896767;29;20671;-86
2022/09/20 09:33:54;;;;;;;5.60;0.98;;;18.40;99.90;;;;;;4942540;28;20046;-87
2022/09/20 09:36:46;;;;;;;5.28;0.38;;;18.40;99.90;;;;;;4971119;28;20060;-87
2022/09/20 09:40:15;;;;;;;3.60;0.63;;;18.40;99.90;;;;;;5000737;28;20056;-86
2022/09/20 09:46:56;;;;;;;5.63;0.70;;;17.90;99.90;;;;;;5024827;28;20088;-87
2022/09/20 09:57:40;;;;;;;6.25;0.82;;;17.70;99.90;;;;;;5057927;28;20137;-86
2022/09/20 10:00:18;;;;;;;4.60;0.40;;;17.90;99.90;;;;;;5050063;28;20526;-87
2022/09/20 10:03:22;;;;;;;5.63;0.50;;;18.00;99.90;;;;;;5036815;28;20461;-86
2022/09/20 10:06:20;;;;;;;3.03;0.40;;;17.70;99.90;;;;;;5045322;28;20094;-86
2022/09/20 10:09:58;;;;;;;1.83;0.28;;;17.40;99.90;;;;;;5021448;28;20045;-85
2022/09/20 10:13:08;;;;;;;3.22;0.40;;;16.80;99.90;;;;;;5003028;28;20498;-87
2022/09/20 10:16:28;;;;;;;3.13;0.55;;;16.40;99.90;;;;;;5087001;28;20043;-86
2022/09/20 10:19:15;;;;;;;2.80;0.35;;;16.10;99.90;;;;;;4998214;28;20052;-86
2022/09/20 10:22:28;;;;;;;2.53;0.50;;;15.70;99.90;;;;;;5071560;28;20142;-87
2022/09/20 10:26:10;;;;;;;2.60;0.60;;;15.40;99.90;;;;;;5062097;28;20049;-87
2022/09/20 10:29:16;;;;;;;3.22;0.40;;;15.10;99.90;;;;;;4970158;28;20170;-87
2022/09/20 10:32:15;;;;;;;3.58;0.40;;;14.80;99.90;;;;;;4975809;28;20079;-86
2022/09/20 10:35:29;;;;;;;2.30;0.30;;;14.70;99.90;;;;;;5000669;28;20038;-87
2022/09/20 10:37:58;;;;;;;2.38;0.30;;;14.70;99.90;;;;;;4992432;28;20056;-87
2022/09/20 10:43:13;;;;;;;4.40;0.30;;;14.90;99.90;;;;;;5060181;28;20063;-86
2022/09/20 10:43:31;;;;;;;4.50;0.40;;;14.80;99.90;;;;;;5090868;28;20120;-86
2022/09/20 10:46:25;;;;;;;3.00;0.50;;;14.90;99.90;;;;;;5094307;28;20043;-86
2022/09/20 10:49:14;;;;;;;4.20;0.73;;;15.10;99.90;;;;;;5089145;28;20036;-86
2022/09/20 10:51:46;;;;;;;2.97;0.50;;;15.10;99.90;;;;;;5094758;28;20111;-86
2022/09/20 10:54:37;;;;;;;2.78;0.30;;;15.20;99.90;;;;;;5069956;28;20044;-87
2022/09/20 10:57:29;;;;;;;2.63;0.40;;;15.40;99.90;;;;;;5087314;28;20424;-86
2022/09/20 11:00:06;;;;;;;2.03;0.30;;;15.60;99.90;;;;;;5065027;28;20036;-86
2022/09/20 11:02:43;;;;;;;2.97;0.30;;;15.70;99.90;;;;;;5074119;28;20036;-87
2022/09/20 11:05:39;;;;;;;4.28;0.50;;;15.80;99.90;;;;;;5089188;28;20071;-86
2022/09/20 11:08:15;;;;;;;5.60;0.47;;;16.00;99.90;;;;;;5081191;28;20045;-86
2022/09/20 11:10:43;;;;;;;7.15;0.35;;;16.10;99.90;;;;;;5090264;28;20032;-87
2022/09/20 11:13:19;;;;;;;2.58;0.20;;;16.20;99.90;;;;;;5088198;28;20094;-87
2022/09/20 11:16:07;;;;;;;8.65;0.88;;;16.30;99.90;;;;;;5088619;28;20397;-86
2022/09/20 11:18:57;;;;;;;4.45;0.40;;;16.40;99.90;;;;;;5079138;28;20048;-86
2022/09/20 11:21:29;;;;;;;6.75;0.57;;;16.50;99.90;;;;;;5065134;28;20044;-86
2022/09/20 11:23:58;;;;;;;3.72;0.47;;;16.60;99.90;;;;;;5090623;28;20034;-87
2022/09/20 11:26:37;;;;;;;3.80;0.57;;;17.30;99.90;;;;;;5081650;28;20119;-87
2022/09/20 11:29:18;;;;;;;4.68;0.85;;;16.60;99.90;;;;;;5071245;28;20044;-87
2022/09/20 11:31:46;;;;;;;4.50;0.40;;;16.90;99.90;;;;;;5080198;28;20048;-87
2022/09/20 11:34:15;;;;;;;3.53;0.50;;;17.30;99.90;;;;;;5089812;28;20399;-85
2022/09/20 11:36:51;;;;;;;5.18;0.57;;;17.40;99.90;;;;;;5083385;28;20043;-87
2022/09/20 11:39:58;;;;;;;5.18;0.82;;;17.30;99.90;;;;;;5071765;28;20102;-85
2022/09/20 11:42:31;;;;;;;5.65;0.82;;;17.40;99.90;;;;;;5070554;28;20279;-87
2022/09/20 11:44:57;;;;;;;4.15;0.75;;;17.80;99.90;;;;;;5082174;28;20040;-87
2022/09/20 11:47:40;;;;;;;6.47;1.20;;;17.80;99.90;;;;;;5087001;28;20120;-86
2022/09/20 11:50:25;;;;;;;3.40;0.40;;;18.10;99.90;;;;;;5085223;28;20391;-86
2022/09/20 11:53:24;;;;;;;3.63;0.50;;;18.40;99.90;;;;;;5066499;28;20552;-86
2022/09/20 11:55:58;;;;;;;4.93;0.40;;;18.70;99.90;;;;;;5086627;28;20618;-86
2022/09/20 11:58:26;;;;;;;3.20;0.60;;;18.90;99.90;;;;;;5088765;28;20628;-87
2022/09/20 12:00:55;;;;;;;1.60;0.45;;;18.90;99.90;;;;;;5085817;28;20111;-87
2022/09/20 12:03:34;;;;;;;3.05;0.50;;;18.90;99.90;;;;;;5085173;28;20112;-87
2022/09/20 12:06:19;;;;;;;5.90;0.98;;;19.00;99.90;;;;;;5069375;28;20089;-86
2022/09/20 12:08:48;;;;;;;2.63;0.45;;;19.20;99.90;;;;;;5085834;28;20085;-86
2022/09/20 12:11:15;;;;;;;6.05;0.90;;;19.60;99.90;;;;;;5087008;28;20089;-86
2022/09/20 12:13:51;;;;;;;7.10;1.02;;;19.60;99.90;;;;;;5069041;28;20043;-86
2022/09/20 12:16:39;;;;;;;3.00;0.47;;;19.50;99.90;;;;;;5061661;28;20105;-86
2022/09/20 12:19:32;;;;;;;2.33;0.60;;;19.20;99.90;;;;;;5080573;28;20044;-86
2022/09/20 12:21:57;;;;;;;4.05;0.50;;;18.90;99.90;;;;;;5053805;28;20510;-86
2022/09/20 12:24:40;;;;;;;3.38;0.85;;;18.60;99.90;;;;;;5063414;28;20041;-87
2022/09/20 12:27:28;;;;;;;3.78;0.50;;;18.60;99.90;;;;;;5061915;28;20044;-86
2022/09/20 12:30:13;;;;;;;5.15;0.73;;;18.20;99.90;;;;;;5083731;28;20111;-86
2022/09/20 12:32:44;;;;;;;;;;;17.90;99.90;;;;;;5083329;28;20485;-86
2022/09/20 12:35:35;;;;;;;4.88;0.82;;;17.80;99.90;;;;;;5071536;28;19923;-87
2022/09/20 12:38:18;;;;;;;7.10;1.00;;;17.70;99.90;;;;;;5068660;28;20059;-86
2022/09/20 12:41:08;;;;;;;3.20;0.82;;;17.70;99.90;;;;;;5081386;28;20040;-86
2022/09/20 12:43:37;;;;;;;3.95;0.50;;;17.60;99.90;;;;;;5082710;28;20027;-86
2022/09/20 12:46:04;;;;;;;3.83;0.52;;;17.50;99.90;;;;;;5084199;28;20394;-86
2022/09/20 12:48:35;;;;;;;7.60;1.08;;;17.60;99.90;;;;;;5082261;28;20073;-86
2022/09/20 12:54:10;;;;;;;7.30;0.55;;;17.80;99.90;;;;;;5084650;28;20043;-86
2022/09/20 12:56:38;;;;;;;4.90;1.02;;;17.90;99.90;;;;;;5088618;28;20039;-85
2022/09/20 12:59:20;;;;;;;7.47;0.50;;;18.00;99.90;;;;;;5078068;28;20051;-86
2022/09/20 13:01:46;;;;;;;3.00;0.40;;;18.20;99.90;;;;;;5080232;28;20036;-86
2022/09/20 13:04:51;;;;;;;5.85;0.47;;;18.00;99.90;;;;;;5083694;28;20118;-86
2022/09/20 13:07:50;;;;;;;4.63;0.95;;;18.30;99.90;;;;;;5085766;28;20399;-86
2022/09/20 13:10:29;;;;;;;2.83;0.35;;;18.70;99.90;;;;;;5053357;28;20055;-86
2022/09/20 13:13:01;;;;;;;1.80;0.40;;;19.00;99.90;;;;;;5078389;28;20064;-86
2022/09/20 13:15:27;;;;;;;5.82;0.40;;;18.60;99.90;;;;;;5079949;28;20429;-86
2022/09/20 13:17:55;;;;;;;3.85;0.50;;;18.40;99.90;;;;;;5086733;28;20043;-87
2022/09/20 13:20:26;;;;;;;3.35;0.47;;;18.30;99.90;;;;;;5063670;28;20044;-86
2022/09/20 13:22:53;;;;;;;6.90;0.70;;;18.40;99.90;;;;;;5081317;28;20032;-86
2022/09/20 13:25:20;;;;;;;3.20;0.50;;;18.80;99.90;;;;;;5070360;28;20036;-86
2022/09/20 13:28:21;;;;;;;7.47;0.60;;;18.30;99.90;;;;;;5091347;28;20785;-86
2022/09/20 13:30:47;;;;;;;5.13;0.50;;;18.50;99.90;;;;;;5057539;28;20044;-86
2022/09/20 13:33:23;;;;;;;3.38;0.57;;;18.50;99.90;;;;;;5079363;28;20047;-85
2022/09/20 13:35:53;;;;;;;3.03;0.63;;;18.70;99.90;;;;;;5089196;28;20442;-86
2022/09/20 13:38:21;;;;;;;4.18;0.50;;;18.80;99.90;;;;;;5080919;28;20052;-86
2022/09/20 13:40:48;;;;;;;3.00;0.40;;;18.80;99.90;;;;;;5077779;28;20489;-86
2022/09/20 13:43:36;;;;;;;1.40;0.40;;;18.50;99.50;;;;;;5081269;28;20032;-86
2022/09/20 13:46:06;;;;;;;2.83;0.52;;;18.10;99.90;;;;;;5084799;28;20101;-86
2022/09/20 13:48:32;;;;;;;2.67;0.40;;;17.80;99.90;;;;;;5079998;28;20032;-86
2022/09/20 13:50:58;;;;;;;3.08;0.50;;;17.80;99.90;;;;;;5069842;28;20210;-86
2022/09/20 13:53:26;;;;;;;4.50;0.25;;;17.60;99.90;;;;;;5080103;28;20042;-86
2022/09/20 13:55:55;;;;;;;5.20;0.30;;;17.60;99.90;;;;;;5090110;28;20173;-86
2022/09/20 13:58:27;;;;;;;2.33;0.20;;;17.50;99.90;;;;;;5082765;28;20455;-86
2022/09/20 14:00:56;;;;;;;1.10;0.20;;;17.50;99.90;;;;;;5085633;28;20036;-86
2022/09/20 14:03:22;;;;;;;4.50;0.30;;;17.60;99.90;;;;;;5083544;28;20045;-86
2022/09/20 14:05:51;;;;;;;5.43;1.17;;;17.80;99.90;;;;;;5069100;28;20036;-86
2022/09/20 14:08:27;;;;;;;2.80;0.50;;;17.80;99.90;;;;;;5078904;28;20035;-86
2022/09/20 14:11:15;;;;;;;9.40;0.57;;;17.70;99.90;;;;;;5064472;28;20071;-87
2022/09/20 14:13:43;;;;;;;3.53;0.30;;;17.60;99.90;;;;;;5079739;28;20510;-86
2022/09/20 14:16:09;;;;;;;4.97;0.82;;;17.30;99.90;;;;;;5083663;28;20057;-86
2022/09/20 14:18:38;;;;;;;1.63;0.35;;;17.20;99.90;;;;;;5083540;28;20047;-87
2022/09/20 14:21:07;;;;;;;3.05;0.30;;;17.00;99.90;;;;;;5082972;28;20040;-86
2022/09/20 14:23:56;;;;;;;3.38;0.40;;;17.40;99.90;;;;;;5085665;28;20032;-86
2022/09/20 14:26:29;;;;;;;2.95;0.40;;;16.80;99.90;;;;;;5069545;28;20054;-86
2022/09/20 14:29:38;;;;;;;3.53;0.88;;;16.60;99.90;;;;;;5062812;28;20764;-86
2022/09/20 14:32:53;;;;;;;2.17;0.28;;;16.50;99.90;;;;;;5066913;28;20052;-86
2022/09/20 14:36:00;;;;;;;3.03;0.60;;;16.50;99.90;;;;;;5056178;28;20113;-86
2022/09/20 14:39:22;;;;;;;3.15;0.88;;;16.40;99.90;;;;;;5084167;28;20044;-86
2022/09/20 14:42:19;;;;;;;4.95;0.40;;;16.40;99.90;;;;;;5079669;28;20111;-87
2022/09/20 14:45:41;;;;;;;5.05;0.38;;;16.50;99.90;;;;;;5088160;28;20502;-86
2022/09/20 14:52:28;;;;;;;2.15;0.30;;;16.70;99.90;;;;;;5088190;28;20086;-86
2022/09/20 14:55:27;;;;;;;5.13;0.50;;;16.90;99.90;;;;;;5067131;28;20168;-86
2022/09/20 15:54:06;;;;;;;4.97;0.40;;;15.90;99.90;;;;;;5086622;28;20036;-86
2022/09/20 18:05:34;;;;;;;4.30;0.30;;;11.90;99.90;;;;;;5004442;28;20522;-88
2022/09/20 18:08:15;;;;;;;5.35;0.85;;;11.80;99.90;;;;;;5041617;28;20067;-86
2022/09/20 18:10:52;;;;;;;3.60;0.95;;;11.80;99.90;;;;;;5081515;28;20081;-84
2022/09/20 18:13:20;;;;;;;2.88;0.30;;;11.90;99.90;;;;;;5075804;28;20040;-87
2022/09/20 18:15:49;;;;;;;3.78;0.30;;;11.80;99.90;;;;;;5082910;28;20036;-85
2022/09/20 18:18:15;;;;;;;3.67;2.40;;;12.00;99.90;;;;;;5080918;28;20119;-84
2022/09/20 18:20:40;;;;;;;8.18;1.58;;;12.00;99.90;;;;;;5071523;28;20040;-83
2022/09/20 18:26:20;;;;;;;6.80;2.00;;;12.00;99.90;;;;;;5087497;28;20053;-86
2022/09/20 18:28:53;;;;;;;10.55;2.90;;;11.90;99.90;;;;;;5064962;28;20101;-86
2022/09/20 18:31:21;;;;;;;7.07;2.10;;;12.00;99.90;;;;;;5085954;28;20067;-85
2022/09/20 18:41:52;;;;;;;5.63;0.85;;;11.80;99.90;;;;;;5087174;28;20055;-88
2022/09/20 19:04:36;;;;;;;6.30;0.40;;;11.50;99.90;;;;;;4947006;28;20114;-88
2022/09/20 19:08:20;;;;;;;5.28;0.30;;;11.40;99.90;;;;;;4882938;29;20116;-89
2022/09/20 19:11:48;;;;;;;7.45;0.40;;;11.40;99.90;;;;;;4855869;29;20051;-86
2022/09/20 20:11:49;;;;;;;12.70;1.17;;;10.30;99.90;;;;;;5079408;28;20035;-84
2022/09/20 20:14:36;;;;;;;8.60;1.33;;;10.20;99.90;;;;;;5061411;28;20056;-84
2022/09/20 20:17:22;;;;;;;7.28;0.80;;;10.30;99.90;;;;;;5064343;28;20064;-84
2022/09/20 20:20:12;;;;;;;4.13;0.75;;;10.30;99.90;;;;;;5080669;28;20720;-85
2022/09/20 20:22:50;;;;;;;4.95;0.80;;;10.30;99.90;;;;;;5059399;28;20032;-84
2022/09/20 20:25:37;;;;;;;5.32;0.60;;;10.30;99.90;;;;;;5082176;28;20051;-84
2022/09/20 20:28:04;;;;;;;3.58;0.75;;;10.40;99.90;;;;;;5066175;28;20064;-85
2022/09/20 20:30:34;;;;;;;4.22;0.77;;;10.30;99.90;;;;;;5065155;28;20044;-84
2022/09/20 20:33:01;;;;;;;6.80;1.55;;;10.30;99.90;;;;;;5081907;28;20071;-84
2022/09/20 20:35:26;;;;;;;3.95;1.27;;;10.30;99.90;;;;;;5070342;28;20489;-85
2022/09/20 20:37:52;;;;;;;4.35;0.93;;;10.30;99.90;;;;;;5067563;28;20286;-85
2022/09/20 20:40:18;;;;;;;1.88;0.43;;;10.30;99.90;;;;;;5070837;28;20044;-85
2022/09/20 20:42:44;;;;;;;5.93;0.80;;;10.20;99.90;;;;;;5065664;28;20052;-84
2022/09/20 20:45:11;;;;;;;4.35;0.75;;;10.10;99.90;;;;;;5066254;28;20040;-85
2022/09/20 20:47:38;;;;;;;2.35;0.60;;;10.00;99.90;;;;;;5066611;28;20051;-85
2022/09/20 20:50:04;;;;;;;4.80;0.80;;;10.40;99.90;;;;;;5065294;28;20086;-84
2022/09/20 20:52:31;;;;;;;4.93;0.65;;;10.10;99.90;;;;;;5065435;28;20040;-84
2022/09/20 20:54:58;;;;;;;8.63;0.85;;;10.10;99.90;;;;;;5063853;28;20040;-85
2022/09/20 20:57:25;;;;;;;4.43;0.77;;;10.00;99.90;;;;;;5081655;28;20574;-85
2022/09/20 20:59:54;;;;;;;5.03;0.70;;;9.80;99.90;;;;;;5060117;28;20669;-85
2022/09/20 21:02:20;;;;;;;4.15;0.52;;;10.10;99.90;;;;;;5081188;28;20040;-85
2022/09/20 21:04:46;;;;;;;7.25;0.82;;;9.70;99.90;;;;;;5078275;28;20099;-85
2022/09/20 21:07:12;;;;;;;4.43;0.95;;;9.20;99.90;;;;;;5082795;28;20127;-85
2022/09/20 21:09:38;;;;;;;8.93;0.98;;;9.10;99.90;;;;;;5083429;28;20512;-85
2022/09/20 21:12:04;;;;;;;6.28;0.90;;;9.50;99.90;;;;;;5084217;28;20043;-85
2022/09/20 21:14:32;;;;;;;5.10;1.05;;;9.50;99.90;;;;;;5078617;28;20053;-84
2022/09/20 21:16:58;;;;;;;4.53;0.88;;;9.40;99.90;;;;;;5061431;28;20426;-85
2022/09/20 21:19:24;;;;;;;7.70;0.55;;;9.30;99.90;;;;;;5079846;28;20116;-84
2022/09/20 21:21:49;;;;;;;3.40;1.15;;;9.30;99.90;;;;;;5078905;28;20485;-85
2022/09/20 21:24:18;;;;;;;15.13;1.33;;;9.30;99.90;;;;;;5080228;28;20040;-85
2022/09/20 21:26:45;;;;;;;1.90;0.60;;;9.20;99.90;;;;;;5079856;28;20533;-84
2022/09/20 21:29:13;;;;;;;1.08;0.50;;;9.10;99.90;;;;;;5065525;28;20071;-85
2022/09/20 21:31:41;;;;;;;5.03;0.90;;;9.10;99.90;;;;;;5082862;28;20277;-84
2022/09/20 21:34:08;;;;;;;3.17;0.65;;;9.00;99.90;;;;;;5060050;28;20039;-85
2022/09/20 21:36:35;;;;;;;2.30;0.63;;;9.00;99.90;;;;;;5077292;28;20048;-84
2022/09/20 21:39:01;;;;;;;1.20;0.70;;;9.00;99.90;;;;;;5083198;28;20039;-85
2022/09/20 21:41:29;;;;;;;3.83;0.70;;;9.10;99.90;;;;;;5061522;28;20044;-85
2022/09/20 21:44:01;;;;;;;1.40;0.50;;;9.10;99.90;;;;;;5080648;28;20629;-85
2022/09/20 21:46:38;;;;;;;1.73;0.50;;;9.50;99.90;;;;;;5081359;28;20114;-85
2022/09/20 21:49:07;;;;;;;2.72;0.40;;;9.10;99.90;;;;;;5091038;28;20044;-84